Time;durP1;ratioP1;P1;durP2;ratioP2;P2;SDS_P1;SDS_P2;PMS_P1;PMS_P2;Temp;Humidity;BMP_temperature;BMP_pressure;BME280_temperature;BME280_humidity;BME280_pressure;Samples;Min_cycle;Max_cycle;Signal;HPM_P1;HPM_P2
2021/08/01 00:03:04;;;;;;;11.18;1.87;;;;;;;19.22;50.40;99913.84;5129283;56;21191;-75
2021/08/01 00:08:09;;;;;;;1.40;1.30;;;;;;;19.12;50.62;99915.97;5123597;56;22078;-75
2021/08/01 00:13:15;;;;;;;7.80;1.77;;;;;;;19.02;50.82;99914.63;5143266;57;22141;-76
2021/08/01 00:18:21;;;;;;;5.45;2.12;;;;;;;18.93;50.89;99925.47;5140266;57;21178;-75
2021/08/01 00:23:26;;;;;;;12.25;2.90;;;;;;;18.87;51.17;99923.52;5157600;57;21162;-76
2021/08/01 00:28:32;;;;;;;6.55;1.45;;;;;;;18.80;51.35;99910.53;5146791;57;21120;-75
2021/08/01 00:33:38;;;;;;;3.50;2.05;;;;;;;18.73;51.44;99906.95;5149030;57;21170;-76
2021/08/01 00:38:43;;;;;;;7.53;1.57;;;;;;;18.69;51.66;99904.83;5154520;57;21242;-75
2021/08/01 00:43:50;;;;;;;2.87;1.60;;;;;;;18.71;51.84;99906.31;5149645;57;21175;-75
2021/08/01 00:48:56;;;;;;;5.33;1.40;;;;;;;18.66;51.92;99908.70;5143245;57;21206;-74
2021/08/01 00:54:02;;;;;;;3.37;1.30;;;;;;;18.61;52.32;99910.63;5145535;57;21166;-74
2021/08/01 00:59:07;;;;;;;3.75;1.47;;;;;;;18.57;52.51;99921.34;5149461;57;21119;-76
2021/08/01 01:04:33;;;;;;;2.75;1.40;;;;;;;18.53;52.65;99921.38;5144438;57;21226;-76
2021/08/01 01:10:12;;;;;;;2.67;1.22;;;;;;;18.50;52.77;99931.12;5138283;57;21234;-75
2021/08/01 01:15:25;;;;;;;6.28;1.32;;;;;;;18.44;52.71;99937.73;5031644;58;21203;-75
2021/08/01 01:20:42;;;;;;;2.55;1.20;;;;;;;18.35;52.81;99933.46;5029167;58;21113;-75
2021/08/01 01:26:06;;;;;;;1.47;1.20;;;;;;;18.25;53.12;99925.20;5040077;58;21168;-76
2021/08/01 01:31:26;;;;;;;3.25;1.37;;;;;;;18.21;53.29;99922.56;5033606;58;21183;-76
2021/08/01 01:36:34;;;;;;;3.58;1.22;;;;;;;18.14;53.39;99932.34;5031193;58;21795;-75
2021/08/01 01:41:46;;;;;;;5.17;1.70;;;;;;;18.11;53.88;99931.37;5031629;57;21563;-75
2021/08/01 01:46:54;;;;;;;2.30;1.13;;;;;;;18.03;54.13;99931.42;5033650;58;21161;-74
2021/08/01 01:52:01;;;;;;;7.87;1.43;;;;;;;17.93;54.53;99927.67;5002034;58;22131;-76
2021/08/01 01:57:08;;;;;;;4.00;1.60;;;;;;;17.90;54.68;99924.02;4957732;59;21208;-76
2021/08/01 02:02:15;;;;;;;3.07;1.83;;;;;;;17.95;54.68;99920.81;5035859;58;21174;-75
2021/08/01 02:07:22;;;;;;;1.95;1.40;;;;;;;18.02;54.69;99920.94;5073663;57;21176;-75
2021/08/01 02:12:43;;;;;;;6.60;1.47;;;;;;;18.01;54.82;99920.09;5106891;57;21120;-75
2021/08/01 02:18:12;;;;;;;3.67;1.67;;;;;;;17.85;55.12;99904.19;5112658;57;21169;-75
2021/08/01 02:23:25;;;;;;;2.87;1.40;;;;;;;17.72;55.08;99907.98;5055463;58;21170;-76
2021/08/01 02:28:33;;;;;;;10.25;1.82;;;;;;;17.65;55.33;99908.36;5157311;57;21515;-76
2021/08/01 02:33:40;;;;;;;5.97;1.77;;;;;;;17.56;55.32;99911.59;5132093;57;21538;-76
2021/08/01 02:38:55;;;;;;;1.80;1.70;;;;;;;17.54;55.60;99907.75;5122327;57;21253;-75
2021/08/01 02:44:05;;;;;;;4.20;2.27;;;;;;;17.45;55.67;99905.30;5136716;57;21202;-75
2021/08/01 02:49:20;;;;;;;4.47;1.83;;;;;;;17.33;56.38;99901.37;5136673;57;21177;-76
2021/08/01 02:54:28;;;;;;;2.63;1.40;;;;;;;17.25;56.72;99910.30;5113685;57;21206;-76
2021/08/01 02:59:36;;;;;;;4.57;1.70;;;;;;;17.19;57.19;99910.99;5120666;57;21166;-76
2021/08/01 03:04:45;;;;;;;6.03;2.20;;;;;;;17.17;57.41;99915.17;5147356;57;21257;-75
2021/08/01 03:09:56;;;;;;;8.07;1.47;;;;;;;17.15;57.37;99921.70;5140854;57;21216;-75
2021/08/01 03:15:01;;;;;;;3.30;1.27;;;;;;;17.13;57.42;99927.22;4981456;59;21187;-75
2021/08/01 03:20:09;;;;;;;6.43;1.70;;;;;;;17.09;57.70;99932.60;5044918;57;21186;-75
2021/08/01 03:25:16;;;;;;;3.77;1.40;;;;;;;17.16;58.22;99938.89;5057914;57;21554;-75
2021/08/01 03:30:22;;;;;;;2.10;1.20;;;;;;;17.19;58.24;99938.55;4975669;58;21211;-75
2021/08/01 03:35:29;;;;;;;7.97;1.73;;;;;;;17.18;58.71;99954.75;5062083;57;21206;-75
2021/08/01 03:40:37;;;;;;;3.83;1.73;;;;;;;17.11;58.32;99950.60;4973769;58;22170;-75
2021/08/01 03:45:43;;;;;;;3.03;1.57;;;;;;;17.08;58.55;99940.29;5056703;57;22067;-76
2021/08/01 03:50:48;;;;;;;2.20;1.23;;;;;;;17.06;58.66;99951.65;5058819;57;21176;-75
2021/08/01 03:55:54;;;;;;;3.33;1.67;;;;;;;17.06;58.98;99954.32;4970597;58;21133;-75
2021/08/01 04:01:00;;;;;;;5.57;2.53;;;;;;;17.07;59.29;99949.81;5058371;57;21168;-75
2021/08/01 04:06:06;;;;;;;6.73;1.60;;;;;;;17.09;59.17;99947.80;4970394;58;21219;-75
2021/08/01 04:11:12;;;;;;;4.00;1.90;;;;;;;17.15;59.29;99949.25;5060360;57;21167;-75
2021/08/01 04:16:18;;;;;;;13.73;2.00;;;;;;;17.18;59.22;99941.39;5072522;58;21561;-75
2021/08/01 04:21:23;;;;;;;3.83;1.40;;;;;;;17.26;59.36;99932.52;5074830;58;21169;-74
2021/08/01 04:26:29;;;;;;;2.13;1.37;;;;;;;17.29;59.52;99945.50;5025439;58;21602;-76
2021/08/01 04:31:34;;;;;;;1.93;1.47;;;;;;;17.33;59.89;99933.45;4897241;58;22146;-76
2021/08/01 04:36:41;;;;;;;10.60;4.00;;;;;;;17.36;60.00;99933.11;4940904;59;21222;-75
2021/08/01 04:41:47;;;;;;;3.90;1.93;;;;;;;17.35;60.21;99933.61;4930278;59;21210;-76
2021/08/01 04:46:52;;;;;;;4.60;1.70;;;;;;;17.31;60.13;99946.16;4927212;59;21178;-76
2021/08/01 04:51:57;;;;;;;7.77;1.90;;;;;;;17.35;60.53;99949.65;4928990;59;21213;-75
2021/08/01 04:57:05;;;;;;;6.40;1.40;;;;;;;17.36;60.93;99954.49;4934318;59;22139;-77
2021/08/01 05:02:10;;;;;;;4.20;2.00;;;;;;;17.35;61.19;99959.51;4918214;59;21237;-75
2021/08/01 05:07:16;;;;;;;3.27;1.40;;;;;;;17.34;61.61;99950.66;4929722;59;21194;-76
2021/08/01 05:12:21;;;;;;;4.87;1.73;;;;;;;17.37;62.23;99956.16;4974805;58;21181;-76
2021/08/01 05:17:27;;;;;;;1.30;1.30;;;;;;;17.41;62.32;99962.83;5056538;57;21245;-76
2021/08/01 05:22:33;;;;;;;3.00;1.30;;;;;;;17.51;62.31;99964.75;5013222;58;21168;-76
2021/08/01 05:27:38;;;;;;;1.50;1.30;;;;;;;17.62;62.26;99967.52;5104215;57;21210;-75
2021/08/01 05:32:44;;;;;;;2.30;1.70;;;;;;;17.68;62.27;99965.52;5092560;57;21095;-75
2021/08/01 05:37:50;;;;;;;11.17;1.63;;;;;;;17.74;62.53;99974.14;5093414;57;21151;-77
2021/08/01 05:42:56;;;;;;;3.00;1.50;;;;;;;17.82;62.60;99978.11;5107234;57;21110;-77
2021/08/01 05:48:02;;;;;;;2.77;1.70;;;;;;;17.98;62.56;99973.14;5133056;57;22158;-74
2021/08/01 05:53:07;;;;;;;1.67;1.57;;;;;;;18.09;62.51;99959.31;5124356;57;21150;-76
2021/08/01 05:58:13;;;;;;;5.17;2.03;;;;;;;18.18;62.75;99963.60;5116360;57;21178;-76
2021/08/01 06:03:19;;;;;;;5.17;1.53;;;;;;;18.31;63.09;99957.12;5139753;57;21166;-77
2021/08/01 06:08:24;;;;;;;2.93;2.23;;;;;;;18.42;63.14;99952.64;5138650;57;21252;-76
2021/08/01 06:13:30;;;;;;;2.87;1.50;;;;;;;18.56;63.06;99940.27;5096474;57;21167;-76
2021/08/01 06:18:37;;;;;;;4.93;1.10;;;;;;;18.71;63.45;99944.32;5095112;57;21227;-76
2021/08/01 06:23:47;;;;;;;3.30;1.30;;;;;;;18.79;63.00;99942.90;5087039;57;21120;-76
2021/08/01 06:28:53;;;;;;;6.90;1.37;;;;;;;18.90;63.04;99943.25;5098071;57;21221;-76
2021/08/01 06:33:59;;;;;;;2.27;1.33;;;;;;;19.02;62.59;99945.45;5078749;57;21167;-77
2021/08/01 06:39:04;;;;;;;4.80;1.75;;;;;;;19.12;62.55;99934.73;5087457;57;21585;-77
2021/08/01 06:44:10;;;;;;;7.47;2.83;;;;;;;19.28;62.48;99929.66;4922618;58;21187;-76
2021/08/01 06:49:16;;;;;;;2.67;1.40;;;;;;;19.43;62.19;99925.59;5066115;58;21522;-78
2021/08/01 06:54:22;;;;;;;3.92;1.52;;;;;;;19.65;61.83;99931.33;5064251;58;21211;-78
2021/08/01 06:59:27;;;;;;;9.45;4.58;;;;;;;19.81;61.50;99927.04;5082276;58;21171;-74
2021/08/01 07:04:33;;;;;;;3.40;1.50;;;;;;;19.97;61.71;99912.01;5068495;58;22183;-82
2021/08/01 07:09:41;;;;;;;2.62;1.30;;;;;;;20.11;60.72;99912.10;5066168;58;21166;-77
2021/08/01 07:14:50;;;;;;;1.40;1.30;;;;;;;20.17;60.51;99908.11;5099484;58;21631;-75
2021/08/01 07:19:55;;;;;;;4.08;1.20;;;;;;;20.23;60.34;99905.16;5092177;58;21568;-77
2021/08/01 07:25:02;;;;;;;1.00;0.93;;;;;;;20.28;60.19;99914.30;5095083;58;21197;-75
2021/08/01 07:30:08;;;;;;;7.00;1.30;;;;;;;20.33;59.75;99919.89;5095193;58;21166;-81
2021/08/01 07:35:14;;;;;;;1.10;1.00;;;;;;;20.36;58.98;99920.88;5093060;58;21162;-76
2021/08/01 07:40:20;;;;;;;2.65;1.30;;;;;;;20.39;58.97;99924.20;5102206;58;22144;-76
2021/08/01 07:45:36;;;;;;;5.05;1.40;;;;;;;20.46;59.08;99929.95;5112603;58;21536;-75
2021/08/01 07:50:33;;;;;;;1.95;1.42;;;;;;;20.54;59.20;99939.69;5093766;58;21201;-75
2021/08/01 07:55:39;;;;;;;1.47;1.37;;;;;;;20.62;59.13;99950.30;5094689;58;21118;-77
2021/08/01 08:00:44;;;;;;;2.25;1.47;;;;;;;20.66;58.81;99939.45;5073248;58;21174;-76
2021/08/01 08:05:51;;;;;;;1.95;1.45;;;;;;;20.70;58.80;99944.75;5009550;57;21170;-76
2021/08/01 08:10:57;;;;;;;4.80;2.30;;;;;;;20.66;58.55;99936.24;5097082;58;21537;-77
2021/08/01 08:16:02;;;;;;;2.17;1.72;;;;;;;20.71;58.62;99952.61;5069121;58;21627;-76
2021/08/01 08:21:08;;;;;;;3.80;1.30;;;;;;;20.76;58.68;99941.28;5061288;58;21566;-77
2021/08/01 08:26:14;;;;;;;9.93;1.40;;;;;;;20.79;58.36;99938.68;5069758;58;21703;-77
2021/08/01 08:31:20;;;;;;;3.77;1.80;;;;;;;20.80;57.25;99937.14;5064710;58;21203;-76
2021/08/01 08:36:25;;;;;;;6.37;1.42;;;;;;;20.89;57.65;99925.72;5072669;58;21167;-76
2021/08/01 08:41:32;;;;;;;1.50;1.40;;;;;;;20.94;57.30;99911.97;5069516;58;21207;-76
2021/08/01 08:46:39;;;;;;;2.05;1.37;;;;;;;20.93;57.14;99904.14;5065938;58;21207;-77
2021/08/01 08:51:48;;;;;;;5.53;1.37;;;;;;;20.97;56.62;99900.00;5085233;58;21203;-77
2021/08/01 08:56:55;;;;;;;4.80;1.32;;;;;;;21.05;56.21;99901.17;5072536;58;21547;-76
2021/08/01 09:02:01;;;;;;;2.35;1.35;;;;;;;21.09;55.78;99906.44;5074686;57;22129;-76
2021/08/01 09:07:07;;;;;;;1.72;0.98;;;;;;;21.16;55.57;99909.17;5113749;57;21169;-75
2021/08/01 09:12:13;;;;;;;3.72;1.65;;;;;;;21.27;54.31;99913.98;5090381;58;21153;-76
2021/08/01 09:17:39;;;;;;;2.45;1.25;;;;;;;21.29;54.38;99895.27;5105114;57;21107;-76
2021/08/01 09:23:13;;;;;;;3.60;1.22;;;;;;;21.36;54.21;99889.40;5123332;57;21199;-77
2021/08/01 09:28:26;;;;;;;1.05;0.85;;;;;;;21.40;53.72;99881.73;5025779;58;21534;-76
2021/08/01 09:33:53;;;;;;;5.12;1.37;;;;;;;21.40;54.17;99879.86;5030120;58;21683;-76
2021/08/01 09:38:56;;;;;;;3.27;1.00;;;;;;;21.47;53.31;99875.85;5024494;58;21261;-76
2021/08/01 09:44:05;;;;;;;1.05;1.02;;;;;;;21.51;53.60;99870.90;5023625;58;21182;-76
2021/08/01 09:49:14;;;;;;;7.95;1.17;;;;;;;21.52;53.89;99876.59;5024799;58;21201;-76
2021/08/01 09:54:24;;;;;;;1.57;1.45;;;;;;;21.53;53.24;99875.56;5021927;58;21176;-76
2021/08/01 09:59:32;;;;;;;4.37;1.95;;;;;;;21.45;53.23;99881.95;5025103;58;21171;-76
2021/08/01 10:04:40;;;;;;;4.97;1.32;;;;;;;21.43;54.04;99886.70;5075837;57;21503;-76
2021/08/01 10:09:51;;;;;;;1.30;1.10;;;;;;;21.46;53.57;99887.64;5112328;57;21159;-76
2021/08/01 10:14:58;;;;;;;3.87;1.00;;;;;;;21.39;51.93;99886.79;5072485;58;21212;-76
2021/08/01 10:20:04;;;;;;;0.60;0.60;;;;;;;21.31;52.62;99888.34;5074608;58;21581;-76
2021/08/01 10:25:25;;;;;;;1.87;1.15;;;;;;;21.24;52.46;99888.31;4908340;59;21165;-76
2021/08/01 10:30:33;;;;;;;20.10;2.98;;;;;;;21.23;52.99;99885.86;4934961;59;22104;-76
2021/08/01 10:35:42;;;;;;;3.30;1.65;;;;;;;21.22;53.06;99883.68;4993018;58;21814;-76
2021/08/01 10:40:52;;;;;;;8.03;2.85;;;;;;;21.24;53.44;99875.38;5015990;57;21678;-76
2021/08/01 10:45:55;;;;;;;2.50;0.95;;;;;;;21.24;53.12;99876.21;5072173;58;21611;-76
2021/08/01 10:51:01;;;;;;;1.95;0.72;;;;;;;21.25;52.97;99882.42;5072116;58;21236;-76
2021/08/01 10:56:29;;;;;;;1.47;1.32;;;;;;;21.26;52.57;99886.77;4957703;58;21198;-76
2021/08/01 11:01:54;;;;;;;12.10;1.27;;;;;;;21.20;53.49;99891.12;4936873;59;21138;-76
2021/08/01 11:07:00;;;;;;;2.33;1.27;;;;;;;21.11;54.54;99898.18;4941973;59;21265;-76
2021/08/01 11:12:30;;;;;;;2.10;1.40;;;;;;;20.94;54.83;99908.45;5027451;58;21522;-76
2021/08/01 11:17:51;;;;;;;2.17;1.37;;;;;;;20.78;55.50;99906.14;5050684;58;21233;-75
2021/08/01 11:23:06;;;;;;;3.25;1.25;;;;;;;20.63;56.87;99912.97;5097731;57;22236;-75
2021/08/01 11:28:28;;;;;;;4.08;1.27;;;;;;;20.41;58.90;99916.78;5068307;57;21154;-75
2021/08/01 11:33:45;;;;;;;4.70;1.57;;;;;;;20.11;62.32;99932.23;5105953;57;21164;-76
2021/08/01 11:38:58;;;;;;;1.85;1.65;;;;;;;19.72;65.37;99952.84;5099731;58;21174;-75
2021/08/01 11:44:24;;;;;;;1.62;1.15;;;;;;;19.39;66.24;99956.52;4937175;59;21604;-75
2021/08/01 11:49:47;;;;;;;2.65;1.75;;;;;;;19.21;67.71;99962.28;5063297;57;21207;-75
2021/08/01 11:54:56;;;;;;;5.42;1.65;;;;;;;19.14;68.29;99970.23;4981478;58;21233;-75
2021/08/01 12:00:01;;;;;;;3.33;1.02;;;;;;;19.05;69.56;99974.05;4988048;57;21186;-75
2021/08/01 12:05:10;;;;;;;1.72;1.20;;;;;;;18.91;70.22;99977.07;5074244;57;21597;-75
2021/08/01 12:10:25;;;;;;;1.15;0.88;;;;;;;18.73;69.77;99973.93;5110689;57;22139;-74
2021/08/01 12:15:36;;;;;;;2.50;1.07;;;;;;;18.57;69.87;99974.08;5063128;57;21159;-76
2021/08/01 12:20:41;;;;;;;1.70;1.10;;;;;;;18.41;70.43;99971.06;4934655;59;21121;-76
2021/08/01 12:25:49;;;;;;;2.55;1.25;;;;;;;18.37;71.59;99982.30;4935986;59;21179;-76
2021/08/01 12:30:54;;;;;;;1.95;1.10;;;;;;;18.35;71.67;99989.18;4936028;59;21164;-75
2021/08/01 12:36:00;;;;;;;3.35;1.72;;;;;;;18.42;72.43;99999.50;4937616;59;21212;-75
2021/08/01 12:41:12;;;;;;;5.28;2.60;;;;;;;18.46;73.62;99998.64;5084836;57;21166;-75
2021/08/01 12:46:20;;;;;;;3.02;1.72;;;;;;;18.44;74.19;99998.81;5099854;57;21152;-76
2021/08/01 12:51:25;;;;;;;9.15;1.72;;;;;;;18.42;74.23;99990.63;5099905;57;21182;-76
2021/08/01 12:56:31;;;;;;;2.93;1.70;;;;;;;18.38;75.02;99988.82;5086453;57;21161;-75
2021/08/01 13:01:44;;;;;;;7.25;1.60;;;;;;;18.36;75.72;99990.84;5066556;57;21175;-75
2021/08/01 13:06:49;;;;;;;;;;;;;;;18.36;75.86;99989.50;5074188;57;21222;-75
2021/08/01 13:11:56;;;;;;;7.20;3.27;;;;;;;18.35;75.73;99996.38;4990902;58;20146;-75
2021/08/01 13:17:02;;;;;;;3.10;2.00;;;;;;;18.32;76.00;99990.08;5068240;57;21162;-76
2021/08/01 13:22:17;;;;;;;2.02;1.30;;;;;;;18.32;76.09;99982.05;4987110;58;21691;-75
2021/08/01 13:27:23;;;;;;;3.07;2.50;;;;;;;18.33;76.13;99974.34;4863880;58;21188;-75
2021/08/01 13:32:37;;;;;;;7.13;2.53;;;;;;;18.38;76.25;99961.21;5048458;57;21218;-75
2021/08/01 13:37:41;;;;;;;4.97;2.83;;;;;;;18.29;75.86;99963.16;5048889;57;21158;-75
2021/08/01 13:42:48;;;;;;;1.85;1.42;;;;;;;18.25;76.29;99954.65;5010869;58;21220;-75
2021/08/01 13:47:55;;;;;;;7.28;3.10;;;;;;;18.23;76.62;99948.64;5030962;58;21176;-75
2021/08/01 13:53:01;;;;;;;1.67;1.50;;;;;;;18.20;76.58;99946.83;5112919;56;22100;-75
2021/08/01 13:58:09;;;;;;;2.92;1.75;;;;;;;18.24;76.87;99940.10;5114242;57;21200;-75
2021/08/01 14:03:15;;;;;;;2.40;1.53;;;;;;;18.33;76.89;99931.50;5105347;56;21199;-75
2021/08/01 14:08:20;;;;;;;5.25;1.40;;;;;;;18.37;77.49;99922.89;5107921;56;21175;-75
2021/08/01 14:13:27;;;;;;;1.95;1.15;;;;;;;18.36;77.50;99921.73;5139685;57;21174;-75
2021/08/01 14:18:33;;;;;;;5.37;1.60;;;;;;;18.30;77.82;99927.34;5144554;57;21116;-75
2021/08/01 14:23:38;;;;;;;2.50;1.20;;;;;;;18.20;77.75;99920.06;5154995;57;22150;-75
2021/08/01 14:28:44;;;;;;;2.65;1.50;;;;;;;18.21;78.13;99906.50;5151722;57;21178;-75
2021/08/01 14:33:52;;;;;;;2.02;1.40;;;;;;;18.26;77.97;99912.65;5123546;57;22236;-75
2021/08/01 14:39:12;;;;;;;4.00;1.60;;;;;;;18.23;78.04;99904.98;5035545;57;21163;-75
2021/08/01 14:44:13;;;;;;;7.07;1.73;;;;;;;18.29;78.26;99912.29;5029797;56;21676;-75
2021/08/01 14:49:30;;;;;;;3.33;1.17;;;;;;;18.31;78.43;99906.75;5041347;57;21206;-76
2021/08/01 14:54:38;;;;;;;6.40;1.50;;;;;;;18.29;78.43;99893.55;5056420;56;21166;-75
2021/08/01 14:59:47;;;;;;;1.97;1.33;;;;;;;18.23;78.74;99889.75;5028718;58;21475;-75
2021/08/01 15:05:12;;;;;;;1.47;1.40;;;;;;;18.21;78.62;99880.23;5008998;57;21166;-76
2021/08/01 15:10:25;;;;;;;3.02;2.67;;;;;;;18.19;78.77;99875.57;5067585;57;21223;-75
2021/08/01 15:15:38;;;;;;;9.40;2.12;;;;;;;18.27;79.19;99884.87;5108305;57;22389;-75
2021/08/01 15:20:44;;;;;;;2.30;1.37;;;;;;;18.35;79.29;99881.25;5113174;57;22165;-75
2021/08/01 15:25:53;;;;;;;5.27;1.70;;;;;;;18.41;78.76;99874.67;5120481;57;21603;-75
2021/08/01 15:30:59;;;;;;;2.37;1.60;;;;;;;18.48;78.96;99871.59;5110261;57;21627;-75
2021/08/01 15:36:05;;;;;;;2.77;1.63;;;;;;;18.48;78.54;99873.43;5110989;57;21667;-75
2021/08/01 15:41:11;;;;;;;1.47;1.10;;;;;;;18.44;78.83;99878.83;5068121;57;21207;-76
2021/08/01 15:46:18;;;;;;;1.83;1.70;;;;;;;18.39;79.05;99867.32;5030577;57;21182;-75
2021/08/01 15:51:28;;;;;;;1.97;1.63;;;;;;;18.39;79.43;99863.81;4953002;58;21182;-75
2021/08/01 15:56:41;;;;;;;6.43;1.97;;;;;;;18.42;79.69;99866.95;4981586;58;21182;-76
2021/08/01 16:02:16;;;;;;;6.00;2.27;;;;;;;18.43;79.75;99861.92;4977522;58;21131;-75
2021/08/01 16:07:26;;;;;;;6.90;2.20;;;;;;;18.44;79.75;99859.58;4973453;58;21187;-75
2021/08/01 16:12:40;;;;;;;2.75;1.50;;;;;;;18.52;79.92;99843.91;4968297;58;21176;-75
2021/08/01 16:17:52;;;;;;;2.13;1.83;;;;;;;18.55;79.95;99833.66;5090329;57;21167;-75
2021/08/01 16:22:54;;;;;;;3.00;1.87;;;;;;;18.53;79.78;99833.52;5108090;57;21149;-75
2021/08/01 16:27:59;;;;;;;8.23;2.12;;;;;;;18.51;80.09;99831.02;5111045;57;21190;-75
2021/08/01 16:33:06;;;;;;;9.33;3.50;;;;;;;18.52;80.37;99842.56;5106049;57;21162;-75
2021/08/01 16:38:12;;;;;;;14.43;6.65;;;;;;;18.52;80.58;99862.65;5114894;57;22001;-75
2021/08/01 16:43:23;;;;;;;2.70;2.40;;;;;;;18.52;80.43;99850.59;5065728;57;21163;-75
2021/08/01 16:48:57;;;;;;;14.03;6.47;;;;;;;18.56;80.36;99836.66;5054514;57;21191;-75
2021/08/01 16:54:31;;;;;;;4.53;3.10;;;;;;;18.52;80.47;99839.38;5088502;57;21226;-75
2021/08/01 16:59:44;;;;;;;6.25;3.12;;;;;;;18.53;80.12;99825.48;5001666;58;21175;-74
2021/08/01 17:04:50;;;;;;;4.03;2.57;;;;;;;18.51;80.06;99812.27;4967677;58;21171;-75
2021/08/01 17:09:56;;;;;;;1.90;1.80;;;;;;;18.53;80.20;99816.94;5100289;57;21191;-76
2021/08/01 17:15:03;;;;;;;2.97;2.67;;;;;;;18.52;80.19;99814.44;4949752;57;21186;-75
2021/08/01 17:20:12;;;;;;;8.17;3.53;;;;;;;18.54;80.31;99817.27;4990533;58;21570;-75
2021/08/01 17:25:18;;;;;;;3.77;2.10;;;;;;;18.54;80.24;99811.08;4985831;57;21510;-75
2021/08/01 17:30:24;;;;;;;5.17;2.10;;;;;;;18.53;80.06;99812.92;5110695;57;21161;-76
2021/08/01 17:35:31;;;;;;;5.22;2.72;;;;;;;18.54;80.15;99815.09;5118325;57;21161;-75
2021/08/01 17:40:37;;;;;;;11.23;3.50;;;;;;;18.52;80.25;99819.30;5119612;57;21845;-75
2021/08/01 17:45:47;;;;;;;4.87;2.37;;;;;;;18.51;80.18;99827.51;5100801;57;21221;-75
2021/08/01 17:50:53;;;;;;;3.83;1.82;;;;;;;18.50;80.38;99833.37;5092793;58;21506;-76
2021/08/01 17:56:00;;;;;;;3.30;2.10;;;;;;;18.48;80.48;99826.57;5091396;58;21191;-76
2021/08/01 18:01:07;;;;;;;8.20;2.37;;;;;;;18.39;80.84;99823.66;5099000;58;21795;-75
2021/08/01 18:06:12;;;;;;;7.87;3.07;;;;;;;18.31;80.75;99831.80;5112233;58;21244;-75
2021/08/01 18:11:20;;;;;;;7.53;2.90;;;;;;;18.30;80.98;99835.48;5099384;57;21165;-75
2021/08/01 18:16:30;;;;;;;25.83;12.60;;;;;;;18.31;80.79;99837.98;5121383;57;21682;-75
2021/08/01 18:21:40;;;;;;;8.53;4.67;;;;;;;18.37;80.67;99840.41;5109545;57;21666;-75
2021/08/01 18:26:48;;;;;;;5.30;2.83;;;;;;;18.37;80.81;99843.08;5104071;57;21505;-76
2021/08/01 18:31:58;;;;;;;40.67;14.23;;;;;;;18.33;80.89;99849.34;5110309;57;21154;-76
2021/08/01 18:37:03;;;;;;;31.07;13.27;;;;;;;18.27;80.80;99852.23;5020412;59;21178;-76
2021/08/01 18:42:12;;;;;;;10.63;3.20;;;;;;;18.24;81.11;99859.80;5018989;59;21114;-76
2021/08/01 18:47:24;;;;;;;7.70;3.30;;;;;;;18.21;81.08;99853.47;5061270;58;21159;-75
2021/08/01 18:52:39;;;;;;;3.80;3.50;;;;;;;18.13;81.20;99843.70;5104218;57;21162;-75
2021/08/01 18:57:46;;;;;;;8.17;4.20;;;;;;;18.11;81.20;99844.89;5108175;58;21179;-76
2021/08/01 19:02:53;;;;;;;13.23;7.43;;;;;;;18.03;81.60;99837.77;5102943;57;21620;-76
2021/08/01 19:08:00;;;;;;;21.55;8.70;;;;;;;17.96;81.53;99834.69;5093973;57;21165;-75
2021/08/01 19:13:11;;;;;;;4.72;3.83;;;;;;;17.90;81.55;99834.90;5106183;57;21146;-75
2021/08/01 19:18:22;;;;;;;15.87;7.40;;;;;;;17.89;81.74;99837.25;5121809;57;21146;-75
2021/08/01 19:23:31;;;;;;;3.93;2.73;;;;;;;17.85;81.42;99834.13;5109356;57;22177;-75
2021/08/01 19:28:38;;;;;;;6.17;3.67;;;;;;;17.80;81.40;99837.02;5108669;57;21157;-75
2021/08/01 19:33:49;;;;;;;9.30;5.83;;;;;;;17.77;81.43;99837.38;5106659;57;21166;-74
2021/08/01 19:38:56;;;;;;;6.40;3.87;;;;;;;17.76;81.52;99836.55;5097863;57;21174;-76
2021/08/01 19:44:04;;;;;;;6.50;3.30;;;;;;;17.70;81.63;99833.28;5108048;57;21154;-75
2021/08/01 19:49:14;;;;;;;8.67;4.47;;;;;;;17.66;81.81;99838.66;5104369;57;21166;-75
2021/08/01 19:54:21;;;;;;;6.43;4.43;;;;;;;17.65;82.16;99842.34;5103654;57;21182;-76
2021/08/01 19:59:27;;;;;;;4.77;3.53;;;;;;;17.66;82.28;99850.69;5106727;57;21166;-75
2021/08/01 20:04:33;;;;;;;9.70;5.00;;;;;;;17.66;82.41;99841.33;5100610;57;21218;-75
2021/08/01 20:09:39;;;;;;;7.53;3.97;;;;;;;17.65;82.45;99845.02;5099917;57;21276;-76
2021/08/01 20:14:45;;;;;;;3.57;3.27;;;;;;;17.58;82.36;99852.88;5107890;57;21142;-76
2021/08/01 20:19:51;;;;;;;6.20;4.17;;;;;;;17.49;83.37;99855.31;5115476;57;21189;-74
2021/08/01 20:24:57;;;;;;;5.90;4.37;;;;;;;17.39;83.73;99847.22;5104094;57;21094;-74
2021/08/01 20:30:04;;;;;;;7.07;3.90;;;;;;;17.32;84.52;99835.56;5098821;58;21760;-74
2021/08/01 20:35:11;;;;;;;8.93;5.63;;;;;;;17.28;85.22;99843.10;5105935;57;22048;-75
2021/08/01 20:40:16;;;;;;;6.97;4.87;;;;;;;17.25;85.69;99846.16;5115502;57;21658;-75
2021/08/01 20:45:24;;;;;;;6.70;4.30;;;;;;;17.23;85.60;99839.65;5112029;57;21188;-75
2021/08/01 20:50:30;;;;;;;9.43;5.33;;;;;;;17.21;85.91;99840.83;5103397;57;21568;-75
2021/08/01 20:55:37;;;;;;;9.90;6.70;;;;;;;17.18;85.98;99843.85;5107046;57;21165;-74
2021/08/01 21:00:42;;;;;;;7.60;6.17;;;;;;;17.15;86.31;99850.88;5109616;57;21169;-74
2021/08/01 21:05:48;;;;;;;12.80;6.63;;;;;;;17.13;86.81;99845.71;5099717;57;21157;-75
2021/08/01 21:10:54;;;;;;;7.53;6.07;;;;;;;17.09;86.85;99843.59;5095081;57;21207;-74
2021/08/01 21:16:00;;;;;;;10.30;6.30;;;;;;;17.08;87.26;99845.94;5096177;57;21170;-74
2021/08/01 21:21:06;;;;;;;6.10;5.57;;;;;;;17.06;87.42;99842.61;5097567;57;21099;-74
2021/08/01 21:26:14;;;;;;;11.03;6.13;;;;;;;17.06;87.51;99838.09;5103866;57;21165;-74
2021/08/01 21:31:19;;;;;;;9.27;7.17;;;;;;;17.07;88.03;99841.09;5099090;57;21634;-74
2021/08/01 21:36:25;;;;;;;9.00;6.87;;;;;;;17.09;88.04;99841.76;5097929;57;21106;-74
2021/08/01 21:41:31;;;;;;;9.67;7.50;;;;;;;17.07;87.84;99828.24;5090418;58;21182;-74
2021/08/01 21:46:37;;;;;;;10.03;6.20;;;;;;;17.04;88.02;99825.42;5116532;58;21271;-74
2021/08/01 21:51:43;;;;;;;8.23;7.43;;;;;;;17.02;88.53;99819.41;5096158;58;21149;-74
2021/08/01 21:56:49;;;;;;;9.83;7.67;;;;;;;17.02;88.08;99815.91;5107889;58;21157;-74
2021/08/01 22:01:55;;;;;;;10.63;7.53;;;;;;;17.09;88.01;99811.53;5100711;58;21197;-74
2021/08/01 22:07:04;;;;;;;15.20;8.67;;;;;;;17.10;87.98;99812.69;5093026;58;21161;-74
2021/08/01 22:12:12;;;;;;;17.13;7.93;;;;;;;17.16;87.86;99811.97;5005348;58;21208;-74
2021/08/01 22:17:17;;;;;;;14.10;7.10;;;;;;;17.13;87.87;99806.97;4944574;58;21174;-74
2021/08/01 22:22:23;;;;;;;13.37;7.53;;;;;;;17.16;87.96;99803.95;4948642;58;21197;-74
2021/08/01 22:27:31;;;;;;;8.70;7.30;;;;;;;17.18;87.83;99800.59;4952534;58;21216;-74
2021/08/01 22:32:41;;;;;;;7.57;6.87;;;;;;;17.18;87.77;99797.09;4949251;58;21170;-74
2021/08/01 22:37:50;;;;;;;7.83;7.13;;;;;;;17.15;87.68;99798.27;4940386;58;21257;-74
2021/08/01 22:42:56;;;;;;;11.20;8.43;;;;;;;17.09;87.99;99800.84;4954073;58;21201;-74
2021/08/01 22:48:03;;;;;;;12.10;8.67;;;;;;;17.01;87.97;99804.89;4942130;58;21173;-74
2021/08/01 22:53:09;;;;;;;6.57;5.80;;;;;;;16.91;88.46;99809.65;4946071;58;21172;-74
2021/08/01 22:58:16;;;;;;;13.20;8.50;;;;;;;16.88;89.69;99812.16;4949303;58;21213;-74
2021/08/01 23:03:26;;;;;;;10.83;8.20;;;;;;;16.81;89.21;99813.86;4946031;58;21201;-74
2021/08/01 23:08:47;;;;;;;18.93;9.30;;;;;;;16.74;89.85;99805.74;4940641;58;21165;-74
2021/08/01 23:14:00;;;;;;;16.33;9.83;;;;;;;16.70;89.75;99809.77;5070492;58;21237;-74
2021/08/01 23:19:08;;;;;;;11.53;8.78;;;;;;;16.70;89.92;99799.08;5069960;58;21108;-74
2021/08/01 23:24:16;;;;;;;12.03;8.83;;;;;;;16.68;89.86;99794.92;5065232;58;21098;-74
2021/08/01 23:29:23;;;;;;;8.80;7.87;;;;;;;16.73;89.70;99792.56;5078633;58;22128;-74
2021/08/01 23:34:30;;;;;;;14.93;8.50;;;;;;;16.76;89.54;99798.39;5062746;58;22145;-74
2021/08/01 23:39:37;;;;;;;13.10;8.87;;;;;;;16.76;89.38;99797.05;5073479;58;21251;-74
2021/08/01 23:44:48;;;;;;;9.80;8.83;;;;;;;16.73;89.61;99805.91;5080145;58;21173;-74
2021/08/01 23:49:54;;;;;;;11.07;8.33;;;;;;;16.68;89.56;99801.09;5066566;58;21177;-74
2021/08/01 23:55:18;;;;;;;9.67;8.10;;;;;;;16.70;89.52;99792.91;5072031;58;21232;-74
